Time;durP1;ratioP1;P1;durP2;ratioP2;P2;SDS_P1;SDS_P2;PMS_P1;PMS_P2;Temp;Humidity;BMP_temperature;BMP_pressure;BME280_temperature;BME280_humidity;BME280_pressure;Samples;Min_cycle;Max_cycle;Signal;HPM_P1;HPM_P2
2021/05/29 00:01:13;;;;;;;2.60;2.40;;;;;;;13.92;81.01;101012.22;5034976;28;20087;-66
2021/05/29 00:03:57;;;;;;;3.33;2.97;;;;;;;13.94;81.29;101012.91;5034994;28;20090;-66
2021/05/29 00:06:41;;;;;;;5.10;2.60;;;;;;;13.93;80.92;101005.88;5035985;28;20524;-66
2021/05/29 00:09:25;;;;;;;6.78;2.60;;;;;;;13.94;80.00;100996.84;5036055;28;20095;-66
2021/05/29 00:12:10;;;;;;;4.07;2.63;;;;;;;13.94;79.76;100997.69;5035142;28;20096;-66
2021/05/29 00:14:54;;;;;;;8.13;2.60;;;;;;;13.94;81.08;100996.84;5035036;28;20096;-65
2021/05/29 00:17:38;;;;;;;4.68;2.50;;;;;;;13.97;82.71;101000.06;5034971;28;20045;-65
2021/05/29 00:20:22;;;;;;;4.10;2.30;;;;;;;14.00;83.04;100993.56;5035920;28;20049;-66
2021/05/29 00:23:07;;;;;;;3.45;2.83;;;;;;;14.00;82.30;100996.25;5035920;28;20041;-66
2021/05/29 00:25:51;;;;;;;3.80;2.75;;;;;;;13.96;81.25;100994.88;5034565;28;20060;-66
2021/05/29 00:28:36;;;;;;;5.38;2.80;;;;;;;13.90;81.99;100998.13;5034487;28;20079;-66
2021/05/29 00:31:20;;;;;;;4.97;3.17;;;;;;;13.86;83.74;100997.59;5034774;28;20114;-66
2021/05/29 00:34:04;;;;;;;4.82;2.90;;;;;;;13.82;83.46;100989.97;5035692;28;20438;-66
2021/05/29 00:36:48;;;;;;;3.35;2.63;;;;;;;13.81;83.27;100990.97;5034406;28;20414;-66
2021/05/29 00:39:32;;;;;;;5.47;2.80;;;;;;;13.81;82.67;100991.84;5034340;28;20107;-65
2021/05/29 00:42:16;;;;;;;3.10;2.80;;;;;;;13.82;81.23;100987.31;5035288;28;20418;-66
2021/05/29 00:45:00;;;;;;;3.47;2.85;;;;;;;13.83;80.94;100980.94;5034559;28;20461;-65
2021/05/29 00:47:44;;;;;;;3.60;2.35;;;;;;;13.85;81.54;100984.31;5034043;28;20111;-66
2021/05/29 00:50:31;;;;;;;3.92;2.67;;;;;;;13.82;82.78;100979.25;5035083;28;20139;-66
2021/05/29 00:53:17;;;;;;;5.10;2.92;;;;;;;13.79;83.35;100987.59;5034568;28;20052;-66
2021/05/29 00:56:03;;;;;;;5.38;2.95;;;;;;;13.77;83.47;100985.06;5034940;28;20060;-66
2021/05/29 00:58:47;;;;;;;7.10;2.80;;;;;;;13.75;82.77;100975.50;5033829;28;20049;-67
2021/05/29 01:01:31;;;;;;;5.82;3.03;;;;;;;13.74;82.09;100973.78;5019890;28;20125;-66
2021/05/29 01:04:15;;;;;;;4.90;3.35;;;;;;;13.74;81.17;100968.44;5034263;28;20052;-66
2021/05/29 01:07:00;;;;;;;6.78;3.40;;;;;;;13.78;80.24;100972.53;5020408;28;20059;-66
2021/05/29 01:09:45;;;;;;;5.55;3.15;;;;;;;13.77;80.36;100968.16;5034047;28;20127;-66
2021/05/29 01:12:28;;;;;;;6.30;3.40;;;;;;;13.77;80.83;100973.53;5034015;28;20091;-66
2021/05/29 01:15:14;;;;;;;4.30;3.00;;;;;;;13.74;80.72;100973.78;5034205;28;20095;-66
2021/05/29 01:17:58;;;;;;;6.93;2.83;;;;;;;13.71;81.99;100976.78;5034505;28;20044;-66
2021/05/29 01:20:44;;;;;;;4.55;3.00;;;;;;;13.63;83.44;100976.66;5034747;28;20095;-66
2021/05/29 01:23:28;;;;;;;3.38;3.08;;;;;;;13.56;84.17;100972.91;5033483;28;20095;-65
2021/05/29 01:26:12;;;;;;;5.53;3.10;;;;;;;13.52;84.60;100972.34;5034684;28;20422;-66
2021/05/29 01:28:57;;;;;;;3.90;2.90;;;;;;;13.50;84.14;100971.66;5034408;28;20130;-66
2021/05/29 01:31:45;;;;;;;5.32;3.35;;;;;;;13.48;83.82;100983.50;5033616;28;20509;-65
2021/05/29 01:34:36;;;;;;;3.45;3.15;;;;;;;13.42;83.90;100978.69;5033602;28;20099;-65
2021/05/29 01:37:20;;;;;;;4.97;3.10;;;;;;;13.34;84.39;100978.59;5033685;28;20049;-66
2021/05/29 01:40:05;;;;;;;6.80;3.25;;;;;;;13.27;85.97;100975.63;5033171;28;20047;-65
2021/05/29 01:42:50;;;;;;;6.82;3.30;;;;;;;13.25;86.43;100987.50;5033044;28;20048;-66
2021/05/29 01:45:36;;;;;;;5.15;3.47;;;;;;;13.24;86.03;100988.50;5033059;28;20064;-66
2021/05/29 01:48:21;;;;;;;4.78;3.47;;;;;;;13.21;85.22;100986.94;5033463;28;20052;-66
2021/05/29 01:51:05;;;;;;;4.00;3.30;;;;;;;13.20;84.30;100987.06;5033012;28;20075;-65
2021/05/29 01:53:50;;;;;;;4.55;3.75;;;;;;;13.16;84.42;100986.50;5033155;28;20398;-65
2021/05/29 01:56:35;;;;;;;8.15;3.45;;;;;;;13.18;84.42;100983.69;5033149;28;20064;-65
2021/05/29 01:59:18;;;;;;;6.32;3.83;;;;;;;13.17;83.93;100995.41;5033925;28;20052;-66
2021/05/29 02:02:03;;;;;;;5.47;3.72;;;;;;;13.16;83.89;100985.69;5019084;28;20125;-66
2021/05/29 02:04:47;;;;;;;6.22;3.25;;;;;;;13.12;83.89;100986.94;5032725;28;20585;-66
2021/05/29 02:07:31;;;;;;;3.63;3.28;;;;;;;13.01;84.11;100984.41;5033581;28;20056;-65
2021/05/29 02:10:24;;;;;;;6.78;3.50;;;;;;;13.03;84.08;100990.47;5018901;28;20067;-66
2021/05/29 02:13:11;;;;;;;3.73;3.03;;;;;;;13.01;84.30;100995.13;5033077;28;20044;-65
2021/05/29 02:15:55;;;;;;;7.70;3.03;;;;;;;12.95;84.04;100996.53;5033948;28;20687;-65
2021/05/29 02:18:41;;;;;;;5.70;3.83;;;;;;;12.84;84.39;100993.16;5032727;28;20083;-66
2021/05/29 02:21:25;;;;;;;4.30;2.92;;;;;;;12.85;84.36;100989.47;5033358;28;20055;-66
2021/05/29 02:24:09;;;;;;;4.32;3.10;;;;;;;12.77;84.95;100994.69;5032706;28;20545;-66
2021/05/29 02:26:52;;;;;;;4.63;3.38;;;;;;;12.68;84.90;100990.19;5033657;28;20514;-66
2021/05/29 02:29:36;;;;;;;6.28;3.50;;;;;;;12.65;83.45;100992.28;5032649;28;20044;-66
2021/05/29 02:32:21;;;;;;;6.68;4.20;;;;;;;12.72;83.05;100998.78;5018805;28;20044;-65
2021/05/29 02:35:05;;;;;;;6.78;3.58;;;;;;;12.76;82.30;100994.81;5032526;28;20060;-66
2021/05/29 02:37:49;;;;;;;6.65;3.70;;;;;;;12.68;81.88;101003.56;5018581;28;20552;-65
2021/05/29 02:40:34;;;;;;;5.13;4.03;;;;;;;12.69;82.19;101004.41;5033395;28;20134;-66
2021/05/29 02:43:18;;;;;;;5.13;3.78;;;;;;;12.70;82.17;101009.59;5032707;28;20052;-66
2021/05/29 02:46:02;;;;;;;6.18;3.92;;;;;;;12.68;82.19;101005.41;5032453;28;20060;-66
2021/05/29 02:48:46;;;;;;;5.80;3.83;;;;;;;12.72;82.22;101007.63;5032219;28;20044;-66
2021/05/29 02:51:30;;;;;;;4.93;3.40;;;;;;;12.69;82.59;101007.91;5033367;28;20183;-65
2021/05/29 02:54:14;;;;;;;6.15;4.03;;;;;;;12.68;82.53;101013.41;5033579;28;20550;-66
2021/05/29 02:56:58;;;;;;;6.65;3.92;;;;;;;12.66;83.02;101013.53;5032132;28;20521;-66
2021/05/29 02:59:42;;;;;;;8.15;4.15;;;;;;;12.61;82.81;101014.97;5033317;28;20500;-66
2021/05/29 03:02:27;;;;;;;6.30;3.72;;;;;;;12.54;83.32;101011.13;5031896;28;20044;-66
2021/05/29 03:05:11;;;;;;;7.32;4.30;;;;;;;12.55;83.51;101013.69;5032588;28;20505;-66
2021/05/29 03:07:55;;;;;;;13.05;3.90;;;;;;;12.51;83.36;101019.44;5033118;28;20064;-66
2021/05/29 03:10:44;;;;;;;5.45;3.80;;;;;;;12.62;82.94;101019.31;5032234;28;20195;-66
2021/05/29 03:13:28;;;;;;;6.40;3.70;;;;;;;12.49;83.42;101016.91;5032184;28;20092;-65
2021/05/29 03:16:12;;;;;;;3.65;3.33;;;;;;;12.50;82.97;101021.25;5032125;28;20446;-66
2021/05/29 03:18:56;;;;;;;5.35;3.72;;;;;;;12.48;82.53;101025.91;5017895;28;20502;-65
2021/05/29 03:21:40;;;;;;;5.35;3.20;;;;;;;12.48;82.77;101027.75;5036000;28;20056;-66
2021/05/29 03:24:24;;;;;;;4.65;3.78;;;;;;;12.44;82.68;101037.88;5035996;28;20074;-66
2021/05/29 03:27:08;;;;;;;7.10;3.63;;;;;;;12.44;82.98;101035.19;5036143;28;20040;-66
2021/05/29 03:29:52;;;;;;;5.25;3.10;;;;;;;12.48;82.27;101039.28;5035894;28;20107;-66
2021/05/29 03:32:37;;;;;;;4.75;3.10;;;;;;;12.38;81.36;101043.75;5035684;28;20040;-65
2021/05/29 03:35:22;;;;;;;4.07;3.33;;;;;;;12.45;81.29;101038.69;5036780;28;20099;-66
2021/05/29 03:38:06;;;;;;;4.88;3.10;;;;;;;12.40;81.49;101052.47;5035418;28;20056;-66
2021/05/29 03:40:50;;;;;;;8.85;3.00;;;;;;;12.35;81.70;101052.06;5035406;28;20084;-66
2021/05/29 03:43:34;;;;;;;6.32;3.30;;;;;;;12.25;82.75;101061.03;5035379;28;20425;-65
2021/05/29 03:46:18;;;;;;;4.97;3.20;;;;;;;12.17;82.86;101060.88;5035628;28;20052;-65
2021/05/29 03:49:02;;;;;;;6.00;3.28;;;;;;;12.21;82.47;101051.59;5035393;28;20052;-65
2021/05/29 03:51:46;;;;;;;3.55;3.25;;;;;;;12.22;82.46;101056.81;5035168;28;20044;-65
2021/05/29 03:54:30;;;;;;;4.32;3.40;;;;;;;12.20;82.12;101056.06;5035593;28;20052;-65
2021/05/29 03:57:14;;;;;;;4.65;3.30;;;;;;;12.19;82.09;101065.09;5036045;28;20505;-66
2021/05/29 03:59:58;;;;;;;4.75;3.53;;;;;;;12.21;81.96;101062.28;5035345;28;20075;-65
2021/05/29 04:02:44;;;;;;;9.05;3.45;;;;;;;12.20;82.53;101065.94;5036195;28;20481;-66
2021/05/29 04:05:27;;;;;;;7.43;3.58;;;;;;;12.14;83.21;101075.34;5036134;28;20059;-66
2021/05/29 04:08:11;;;;;;;4.82;3.70;;;;;;;12.11;83.07;101072.97;5036138;28;20183;-66
2021/05/29 04:10:55;;;;;;;9.57;3.85;;;;;;;12.12;82.78;101074.66;5035426;28;20048;-65
2021/05/29 04:13:39;;;;;;;4.30;3.50;;;;;;;12.05;82.92;101077.97;5035051;28;20132;-66
2021/05/29 04:16:23;;;;;;;3.42;3.08;;;;;;;12.14;83.42;101075.34;5036097;28;20103;-66
2021/05/29 04:19:07;;;;;;;4.40;3.40;;;;;;;12.14;83.11;101075.34;5035230;28;20048;-66
2021/05/29 04:21:51;;;;;;;5.82;3.38;;;;;;;12.11;83.31;101080.97;5034923;28;20540;-65
2021/05/29 04:24:37;;;;;;;3.85;3.45;;;;;;;12.13;82.85;101076.34;5035651;28;20044;-65
2021/05/29 04:27:21;;;;;;;5.88;3.25;;;;;;;12.15;82.43;101079.72;5034824;28;20528;-67
2021/05/29 04:30:08;;;;;;;4.07;3.35;;;;;;;12.16;82.38;101085.88;5035801;28;20091;-66
2021/05/29 04:32:52;;;;;;;3.72;3.30;;;;;;;12.16;82.67;101086.75;5034234;28;20395;-64
2021/05/29 04:35:37;;;;;;;7.07;3.70;;;;;;;12.15;82.89;101090.41;5034675;28;20091;-66
2021/05/29 04:38:21;;;;;;;6.15;3.70;;;;;;;12.18;82.94;101095.47;5035585;28;20420;-66
2021/05/29 04:41:04;;;;;;;6.38;4.53;;;;;;;12.21;82.57;101083.69;5034541;28;20102;-66
2021/05/29 04:43:50;;;;;;;4.65;3.72;;;;;;;12.21;82.66;101095.19;5035055;28;20076;-66
2021/05/29 04:46:38;;;;;;;4.13;3.50;;;;;;;12.25;82.33;101091.28;5034963;28;20045;-66
2021/05/29 04:49:23;;;;;;;7.13;4.00;;;;;;;12.29;82.40;101091.88;5021010;28;20102;-66
2021/05/29 04:52:07;;;;;;;7.80;4.18;;;;;;;12.24;82.55;101100.28;5034204;28;20048;-66
2021/05/29 04:54:51;;;;;;;5.43;4.05;;;;;;;12.30;82.10;101094.38;5034326;28;20060;-66
2021/05/29 04:57:35;;;;;;;7.28;4.43;;;;;;;12.32;82.03;101097.81;5034089;28;20076;-66
2021/05/29 05:00:19;;;;;;;5.38;4.00;;;;;;;12.41;81.77;101088.09;5035058;28;20095;-66
2021/05/29 05:03:04;;;;;;;5.93;4.50;;;;;;;12.35;81.45;101092.16;5033854;28;20560;-66
2021/05/29 05:05:47;;;;;;;7.05;4.22;;;;;;;12.43;81.52;101095.03;5034158;28;20437;-65
2021/05/29 05:08:32;;;;;;;7.15;4.10;;;;;;;12.44;82.05;101094.03;5034894;28;20051;-66
2021/05/29 05:11:15;;;;;;;6.10;3.95;;;;;;;12.52;81.57;101093.34;5034062;28;20052;-66
2021/05/29 05:13:59;;;;;;;9.30;4.85;;;;;;;12.50;81.09;101103.34;5035054;28;20091;-66
2021/05/29 05:16:43;;;;;;;8.55;4.85;;;;;;;12.52;81.35;101104.91;5033870;28;20075;-66
2021/05/29 05:19:27;;;;;;;6.60;4.25;;;;;;;12.56;81.22;101105.44;5033509;28;20092;-64
2021/05/29 05:22:11;;;;;;;7.13;4.45;;;;;;;12.59;80.34;101111.38;5034759;28;20056;-66
2021/05/29 05:24:55;;;;;;;10.20;4.40;;;;;;;12.62;80.91;101116.44;5034027;28;20052;-66
2021/05/29 05:27:39;;;;;;;6.22;4.38;;;;;;;12.66;80.32;101123.22;5033666;28;20099;-65
2021/05/29 05:30:24;;;;;;;6.78;3.97;;;;;;;12.68;80.71;101118.59;5033667;28;20083;-65
2021/05/29 05:33:08;;;;;;;;;;;;;;;12.69;79.86;101106.91;5034084;28;20557;-65
2021/05/29 05:35:53;;;;;;;6.50;4.65;;;;;;;12.75;80.24;101109.03;5033294;28;19935;-65
2021/05/29 05:38:38;;;;;;;;;;;;;;;12.79;79.94;101113.13;5034953;28;20048;-65
2021/05/29 05:41:21;;;;;;;9.90;4.85;;;;;;;12.88;80.12;101117.66;5034124;28;20405;-66
2021/05/29 05:44:06;;;;;;;7.60;4.68;;;;;;;12.86;80.30;101112.41;5032279;28;20075;-66
2021/05/29 05:46:51;;;;;;;8.63;4.70;;;;;;;12.96;80.35;101117.84;5019268;28;20115;-65
2021/05/29 05:49:34;;;;;;;8.05;4.78;;;;;;;13.07;79.29;101112.34;5033545;28;20092;-66
2021/05/29 05:52:19;;;;;;;5.65;4.57;;;;;;;13.15;79.20;101112.50;5033113;28;20049;-66
2021/05/29 05:55:05;;;;;;;7.03;4.57;;;;;;;13.20;78.98;101118.28;5019210;28;20056;-66
2021/05/29 05:57:49;;;;;;;8.27;5.20;;;;;;;13.30;78.17;101119.13;5033757;28;20052;-66
2021/05/29 06:00:32;;;;;;;5.45;4.55;;;;;;;13.35;77.91;101111.53;5033094;28;20088;-66
2021/05/29 06:03:17;;;;;;;7.65;4.72;;;;;;;13.41;77.62;101116.28;5033108;28;20566;-65
2021/05/29 06:06:01;;;;;;;6.45;4.20;;;;;;;13.44;77.34;101118.69;5033978;28;20103;-66
2021/05/29 06:08:45;;;;;;;6.32;4.65;;;;;;;13.52;77.62;101116.13;5033655;28;20510;-66
2021/05/29 06:11:30;;;;;;;9.27;4.45;;;;;;;13.59;77.12;101119.94;5018840;28;20044;-66
2021/05/29 06:20:19;;;;;;;9.38;4.10;;;;;;;13.85;76.15;101126.38;5032676;28;20176;-66
2021/05/29 06:23:03;;;;;;;6.35;4.43;;;;;;;13.90;74.72;101129.47;5033429;28;20053;-66
2021/05/29 06:25:47;;;;;;;5.35;4.38;;;;;;;13.97;74.03;101128.75;5033684;28;20124;-65
2021/05/29 06:28:31;;;;;;;7.03;4.60;;;;;;;13.93;74.51;101134.53;5032408;28;20492;-65
2021/05/29 06:31:15;;;;;;;5.55;3.80;;;;;;;13.91;73.35;101134.72;5032807;28;20406;-66
2021/05/29 06:33:59;;;;;;;5.10;3.50;;;;;;;14.05;73.20;101130.69;5033632;28;20057;-65
2021/05/29 06:36:43;;;;;;;5.72;3.67;;;;;;;14.02;73.00;101139.91;5033285;28;20048;-66
2021/05/29 06:39:27;;;;;;;6.25;3.80;;;;;;;14.17;73.88;101137.63;5033442;28;20064;-65
2021/05/29 06:42:12;;;;;;;5.40;4.13;;;;;;;14.29;73.04;101142.66;5032401;28;20091;-66
2021/05/29 06:44:56;;;;;;;6.10;4.75;;;;;;;14.27;71.88;101141.97;5032207;28;20101;-65
2021/05/29 06:47:40;;;;;;;6.38;3.80;;;;;;;14.40;71.90;101144.31;5032358;28;20056;-66
2021/05/29 06:50:24;;;;;;;5.78;3.80;;;;;;;14.41;71.17;101146.00;5032126;28;20048;-66
2021/05/29 06:53:12;;;;;;;5.32;3.97;;;;;;;14.41;71.67;101143.31;5033169;28;20076;-66
2021/05/29 06:59:09;;;;;;;4.05;3.40;;;;;;;14.60;70.72;101151.28;5028208;28;20079;-65
2021/05/29 07:01:54;;;;;;;5.22;3.53;;;;;;;14.65;70.47;101151.66;5024739;28;20052;-66
2021/05/29 07:04:38;;;;;;;3.78;3.38;;;;;;;14.76;70.06;101146.09;5038583;28;20406;-65
2021/05/29 07:07:22;;;;;;;4.32;3.22;;;;;;;14.80;69.82;101142.97;5039448;28;20048;-66
2021/05/29 07:10:07;;;;;;;5.80;3.95;;;;;;;14.82;68.83;101149.06;5024435;28;20224;-66
2021/05/29 07:12:51;;;;;;;6.25;3.75;;;;;;;14.92;69.32;101157.03;5037982;28;20047;-66
2021/05/29 07:15:38;;;;;;;5.75;3.35;;;;;;;15.03;69.12;101154.16;5038139;28;20175;-66
2021/05/29 07:18:24;;;;;;;5.88;3.40;;;;;;;15.09;68.49;101143.63;5037992;28;20131;-66
2021/05/29 07:21:08;;;;;;;5.72;3.13;;;;;;;15.22;68.59;101145.97;5039327;28;20410;-66
2021/05/29 07:23:52;;;;;;;4.53;2.83;;;;;;;15.32;67.28;101149.44;5039137;28;20056;-66
2021/05/29 07:26:36;;;;;;;3.00;2.70;;;;;;;15.41;66.86;101143.97;5024108;28;20056;-66
2021/05/29 07:29:20;;;;;;;7.55;3.35;;;;;;;15.50;67.00;101147.63;5038965;28;20102;-66
2021/05/29 07:32:05;;;;;;;5.50;2.97;;;;;;;15.51;65.34;101149.28;5024154;28;20091;-66
2021/05/29 07:34:49;;;;;;;3.97;3.00;;;;;;;15.68;67.16;101151.97;5039073;28;20064;-66
2021/05/29 07:37:33;;;;;;;5.75;2.88;;;;;;;15.73;65.17;101142.44;5037929;28;20072;-66
2021/05/29 07:40:17;;;;;;;3.40;2.97;;;;;;;15.82;64.68;101144.19;5039292;28;20107;-66
2021/05/29 07:43:01;;;;;;;5.78;2.80;;;;;;;15.89;63.87;101137.19;5023864;28;20195;-66
2021/05/29 07:45:45;;;;;;;3.95;2.80;;;;;;;16.05;63.99;101144.53;5038634;28;20071;-66
2021/05/29 07:48:30;;;;;;;4.00;2.67;;;;;;;16.16;63.72;101131.63;5037706;28;20052;-66
2021/05/29 07:51:16;;;;;;;4.63;2.80;;;;;;;16.20;63.35;101143.78;5039036;28;20497;-66
2021/05/29 07:53:59;;;;;;;5.07;3.17;;;;;;;16.34;63.73;101148.56;5037732;28;20048;-66
2021/05/29 07:56:43;;;;;;;5.13;2.90;;;;;;;16.43;63.20;101144.94;5037782;28;20056;-66
2021/05/29 07:59:27;;;;;;;5.30;2.72;;;;;;;16.52;64.27;101148.50;5038508;28;20080;-65
2021/05/29 08:02:11;;;;;;;4.38;2.90;;;;;;;16.58;61.58;101153.25;5037463;28;20052;-66
2021/05/29 08:04:56;;;;;;;4.10;3.60;;;;;;;16.65;61.86;101143.50;5037768;28;20048;-66
2021/05/29 08:07:40;;;;;;;6.90;3.25;;;;;;;16.76;61.14;101141.38;5033913;28;20056;-66
2021/05/29 08:10:23;;;;;;;7.00;3.30;;;;;;;16.81;60.94;101144.44;5035553;28;20190;-66
2021/05/29 08:13:08;;;;;;;2.92;2.63;;;;;;;16.89;61.67;101147.13;5020559;28;20049;-66
2021/05/29 08:15:53;;;;;;;4.32;2.90;;;;;;;16.93;60.03;101148.53;5035539;28;20060;-66
2021/05/29 08:18:37;;;;;;;5.60;2.55;;;;;;;17.04;60.74;101144.66;5034107;28;20052;-66
2021/05/29 08:21:22;;;;;;;3.72;2.90;;;;;;;17.12;59.43;101150.94;5035116;28;20052;-66
2021/05/29 08:24:07;;;;;;;6.15;3.00;;;;;;;17.17;58.48;101145.88;5034450;28;20063;-65
2021/05/29 08:26:52;;;;;;;3.50;2.75;;;;;;;17.22;58.12;101148.94;5020004;28;20052;-65
2021/05/29 08:29:36;;;;;;;3.38;3.03;;;;;;;17.25;57.95;101153.13;5034115;28;20076;-66
2021/05/29 08:32:20;;;;;;;3.58;2.28;;;;;;;17.41;59.82;101148.63;5033867;28;20498;-66
2021/05/29 08:35:06;;;;;;;2.50;2.20;;;;;;;17.51;57.33;101143.94;5034102;28;20056;-66
2021/05/29 08:37:50;;;;;;;4.65;2.88;;;;;;;17.56;56.84;101149.69;5019993;28;20049;-66
2021/05/29 08:40:34;;;;;;;3.20;2.70;;;;;;;17.72;57.40;101141.56;5019687;28;20474;-66
2021/05/29 08:43:18;;;;;;;2.42;2.22;;;;;;;17.81;56.99;101145.97;5034945;28;20107;-66
2021/05/29 08:46:03;;;;;;;2.97;2.33;;;;;;;17.92;55.76;101148.31;5034045;28;20124;-66
2021/05/29 08:48:47;;;;;;;4.32;2.70;;;;;;;18.03;55.79;101150.66;5033628;28;20091;-66
2021/05/29 08:51:31;;;;;;;4.05;2.40;;;;;;;18.11;54.46;101141.72;5034783;28;20075;-66
2021/05/29 08:54:15;;;;;;;2.47;2.28;;;;;;;18.23;54.56;101141.16;5033752;28;20059;-65
2021/05/29 08:56:59;;;;;;;3.55;2.53;;;;;;;18.34;53.11;101148.94;5033734;28;20059;-66
2021/05/29 08:59:43;;;;;;;3.85;2.67;;;;;;;18.35;53.67;101144.38;5034330;28;20536;-66
2021/05/29 09:02:28;;;;;;;2.95;2.38;;;;;;;18.52;53.50;101149.56;5019533;28;20052;-65
2021/05/29 09:05:12;;;;;;;4.60;2.38;;;;;;;18.54;52.30;101144.81;5033537;28;20096;-66
2021/05/29 09:08:04;;;;;;;4.00;2.45;;;;;;;18.66;53.62;101152.38;5033094;28;20048;-66
2021/05/29 09:10:53;;;;;;;6.00;2.58;;;;;;;18.79;51.83;101149.13;5033396;28;20048;-66
2021/05/29 09:13:37;;;;;;;3.30;2.10;;;;;;;18.91;51.36;101142.31;5033164;28;20517;-65
2021/05/29 09:16:24;;;;;;;2.38;2.17;;;;;;;19.06;51.20;101145.94;5033211;28;20055;-66
2021/05/29 09:19:08;;;;;;;2.35;2.15;;;;;;;19.26;49.35;101139.09;5034561;28;20052;-66
2021/05/29 09:21:52;;;;;;;3.97;2.40;;;;;;;19.35;48.34;101146.13;5033308;28;20072;-66
2021/05/29 09:24:37;;;;;;;3.45;2.05;;;;;;;19.53;49.38;101141.28;5020466;28;20120;-66
2021/05/29 09:27:21;;;;;;;5.30;2.30;;;;;;;19.66;48.13;101146.91;5020079;28;20080;-66
2021/05/29 09:30:08;;;;;;;5.30;2.45;;;;;;;19.75;44.62;101145.81;5033992;28;20048;-66
2021/05/29 09:33:08;;;;;;;7.00;2.00;;;;;;;19.89;44.97;101150.44;5033436;28;20155;-65
2021/05/29 09:36:00;;;;;;;5.82;2.28;;;;;;;19.90;45.77;101146.72;5032570;28;20059;-66
2021/05/29 09:38:47;;;;;;;4.70;2.10;;;;;;;20.12;44.61;101162.94;5032655;28;20076;-66
2021/05/29 09:41:33;;;;;;;4.13;2.17;;;;;;;20.37;43.53;101156.25;5032485;28;20057;-66
2021/05/29 09:44:18;;;;;;;2.65;2.10;;;;;;;20.58;43.91;101155.50;5033532;28;20489;-66
2021/05/29 09:47:05;;;;;;;2.85;2.50;;;;;;;20.57;42.05;101159.22;5033397;28;20184;-66
2021/05/29 09:49:52;;;;;;;4.22;2.38;;;;;;;20.50;42.55;101155.63;5031911;28;20378;-66
2021/05/29 09:52:40;;;;;;;3.05;2.20;;;;;;;20.73;42.19;101161.75;5032006;28;20049;-66
2021/05/29 09:55:36;;;;;;;2.25;1.80;;;;;;;21.13;44.05;101155.84;5017830;28;20414;-65
2021/05/29 09:58:20;;;;;;;3.97;2.38;;;;;;;21.26;41.17;101163.09;5032506;28;20103;-66
2021/05/29 10:01:04;;;;;;;4.15;2.20;;;;;;;21.64;39.82;101170.00;5031761;28;20191;-66
2021/05/29 10:03:50;;;;;;;;;;;;;;;21.97;41.59;101164.88;5031808;28;20048;-66
2021/05/29 10:06:34;;;;;;;3.97;1.90;;;;;;;22.15;38.70;101157.94;5031494;28;20477;-66
2021/05/29 10:09:18;;;;;;;2.67;1.90;;;;;;;22.69;38.13;101164.38;5017324;28;20482;-66
2021/05/29 10:12:03;;;;;;;5.03;2.20;;;;;;;23.21;38.02;101170.09;5017488;28;20056;-66
2021/05/29 10:14:47;;;;;;;4.60;2.28;;;;;;;23.70;37.51;101164.31;5031732;28;20091;-67
2021/05/29 10:17:31;;;;;;;4.22;1.80;;;;;;;24.14;34.13;101160.84;5031159;28;20056;-67
2021/05/29 10:20:16;;;;;;;2.38;1.83;;;;;;;24.65;33.13;101163.72;5032593;28;20087;-67
2021/05/29 10:23:00;;;;;;;1.95;1.73;;;;;;;25.50;31.55;101153.28;5031237;28;20138;-66
2021/05/29 10:25:44;;;;;;;4.90;1.85;;;;;;;26.66;29.70;101150.66;5031399;28;20506;-66
2021/05/29 10:28:30;;;;;;;2.92;1.65;;;;;;;28.25;27.60;101144.16;5031421;28;20051;-66
2021/05/29 10:31:14;;;;;;;2.20;1.67;;;;;;;29.60;27.44;101147.16;5032671;28;20088;-67
2021/05/29 10:33:59;;;;;;;2.08;1.60;;;;;;;31.05;24.60;101146.69;5031798;28;20052;-67
2021/05/29 10:36:57;;;;;;;2.53;2.03;;;;;;;31.08;22.38;101148.94;5032192;28;20198;-67
2021/05/29 10:39:43;;;;;;;3.80;1.80;;;;;;;32.08;21.65;101141.75;5032852;28;20091;-67
2021/05/29 10:42:31;;;;;;;4.25;1.50;;;;;;;33.34;20.00;101151.38;5031804;28;20107;-67
2021/05/29 10:45:21;;;;;;;2.05;1.50;;;;;;;34.13;18.69;101144.31;5032866;28;20056;-66
2021/05/29 10:48:11;;;;;;;1.45;1.35;;;;;;;34.71;17.80;101140.94;5031895;28;20111;-67
2021/05/29 10:51:03;;;;;;;2.55;1.20;;;;;;;34.72;16.58;101145.38;5031594;28;20055;-67
2021/05/29 10:53:55;;;;;;;2.70;1.42;;;;;;;35.03;17.50;101133.06;5031567;28;20044;-66
2021/05/29 10:56:38;;;;;;;1.50;1.40;;;;;;;34.91;16.54;101134.50;5032786;28;20052;-67
2021/05/29 10:59:35;;;;;;;4.63;1.77;;;;;;;34.63;17.39;101135.94;5031628;28;20410;-67
2021/05/29 11:02:22;;;;;;;4.85;3.17;;;;;;;35.12;17.26;101131.34;5003763;28;20156;-67
2021/05/29 11:05:31;;;;;;;1.50;1.40;;;;;;;35.64;16.97;101131.63;5032933;28;20055;-67
2021/05/29 11:08:54;;;;;;;1.73;1.30;;;;;;;36.02;17.58;101130.78;5032477;28;20410;-67
2021/05/29 11:11:38;;;;;;;3.20;1.67;;;;;;;35.97;15.57;101122.50;5031562;28;20049;-65
2021/05/29 11:14:27;;;;;;;4.07;2.13;;;;;;;34.84;17.34;101129.25;5032543;28;20149;-65
2021/05/29 11:17:12;;;;;;;3.05;1.80;;;;;;;35.31;17.42;101128.78;5032327;28;20048;-65
2021/05/29 11:20:22;;;;;;;4.22;2.03;;;;;;;34.83;17.18;101121.22;5031211;28;20406;-67
2021/05/29 11:23:06;;;;;;;4.30;1.70;;;;;;;35.65;15.44;101136.09;5032441;28;20048;-66
2021/05/29 11:25:50;;;;;;;6.30;3.15;;;;;;;36.62;16.48;101121.91;5032244;28;20136;-67
2021/05/29 11:28:34;;;;;;;3.95;2.92;;;;;;;37.03;15.74;101120.31;5031982;28;20056;-65
2021/05/29 11:31:18;;;;;;;1.90;1.40;;;;;;;36.45;16.47;101113.19;5017015;28;20049;-64
2021/05/29 11:34:02;;;;;;;2.25;1.70;;;;;;;36.85;16.66;101116.34;5031398;28;20107;-64
2021/05/29 11:36:47;;;;;;;3.63;1.58;;;;;;;36.85;15.66;101108.00;5031300;28;20438;-64
2021/05/29 11:39:31;;;;;;;1.40;1.30;;;;;;;37.56;14.67;101107.88;5031075;28;20099;-65
2021/05/29 11:42:15;;;;;;;1.77;1.60;;;;;;;37.63;15.37;101099.97;5032674;28;20049;-65
2021/05/29 11:45:19;;;;;;;3.28;1.95;;;;;;;37.39;15.62;101104.78;5036329;28;20167;-65
2021/05/29 11:48:04;;;;;;;1.73;1.42;;;;;;;37.66;14.73;101108.56;5035750;28;20103;-65
2021/05/29 11:51:09;;;;;;;2.78;1.35;;;;;;;38.57;14.91;101102.22;5035771;28;20053;-65
2021/05/29 11:54:04;;;;;;;1.52;1.42;;;;;;;38.91;14.77;101094.31;5036060;28;20370;-65
2021/05/29 11:56:50;;;;;;;1.75;1.65;;;;;;;37.75;15.77;101094.78;5034720;28;20048;-65
2021/05/29 11:59:34;;;;;;;4.45;2.15;;;;;;;37.06;15.85;101097.50;5034617;28;20056;-65
2021/05/29 12:02:18;;;;;;;1.95;1.70;;;;;;;36.00;17.15;101098.91;5034562;28;20510;-65
2021/05/29 12:05:02;;;;;;;1.67;1.58;;;;;;;35.91;16.27;101093.13;5034498;28;20418;-65
2021/05/29 12:08:02;;;;;;;1.65;1.55;;;;;;;36.10;15.46;101096.84;5034697;28;20564;-65
2021/05/29 12:10:52;;;;;;;1.38;1.27;;;;;;;36.87;16.15;101094.63;5034515;28;20126;-65
2021/05/29 12:13:36;;;;;;;1.70;1.58;;;;;;;37.20;16.18;101098.41;5035292;28;20041;-65
2021/05/29 12:16:24;;;;;;;3.42;1.48;;;;;;;37.58;14.32;101100.09;5035212;28;20126;-65
2021/05/29 12:19:29;;;;;;;2.35;1.85;;;;;;;37.59;15.66;101096.16;5034165;28;20150;-65
2021/05/29 12:22:27;;;;;;;2.50;1.58;;;;;;;37.10;15.96;101092.97;5033899;28;20585;-65
2021/05/29 12:25:12;;;;;;;1.55;1.42;;;;;;;37.44;15.36;101102.75;5034227;28;20406;-65
2021/05/29 12:27:56;;;;;;;1.35;1.25;;;;;;;36.84;14.55;101094.38;5034012;28;20111;-65
2021/05/29 12:30:39;;;;;;;4.40;1.30;;;;;;;37.66;14.55;101091.88;5034306;28;20048;-65
2021/05/29 12:33:24;;;;;;;1.30;1.20;;;;;;;38.31;14.66;101082.34;5034210;28;20134;-65
2021/05/29 12:36:12;;;;;;;1.70;1.30;;;;;;;38.59;14.69;101080.44;5035069;28;20129;-65
2021/05/29 12:39:00;;;;;;;1.30;1.20;;;;;;;36.79;15.34;101086.13;5033878;28;20048;-64
2021/05/29 12:41:44;;;;;;;2.95;1.55;;;;;;;33.88;17.13;101096.44;5035100;28;20048;-64
2021/05/29 12:44:44;;;;;;;2.53;1.20;;;;;;;31.86;18.34;101094.94;5034974;28;20083;-67
2021/05/29 12:47:30;;;;;;;1.45;1.30;;;;;;;30.75;19.76;101105.81;5034742;28;20052;-67
2021/05/29 12:50:15;;;;;;;1.30;1.20;;;;;;;31.95;19.21;101098.06;5020201;28;20468;-67
2021/05/29 12:53:08;;;;;;;1.65;1.45;;;;;;;33.31;17.24;101093.03;5035186;28;20414;-66
2021/05/29 12:56:13;;;;;;;3.05;1.30;;;;;;;33.70;16.97;101080.34;5035167;28;20516;-67
2021/05/29 12:58:57;;;;;;;1.40;1.30;;;;;;;33.48;17.24;101088.94;5033960;28;20084;-66
2021/05/29 13:08:16;;;;;;;;;;;;;;;32.98;17.86;101087.13;5034761;28;20052;-65